sensor_id;sensor_type;location;lat;lon;timestamp;temperature;humidity
76789;DHT22;65740;52.464;13.446;2023-02-11T00:03:49;18.30;40.40
76789;DHT22;65740;52.464;13.446;2023-02-11T00:06:15;18.30;40.40
76789;DHT22;65740;52.464;13.446;2023-02-11T00:08:41;18.30;40.40
76789;DHT22;65740;52.464;13.446;2023-02-11T00:11:07;18.30;40.40
76789;DHT22;65740;52.464;13.446;2023-02-11T00:13:32;18.30;40.40
76789;DHT22;65740;52.464;13.446;2023-02-11T00:15:58;18.30;40.40
76789;DHT22;65740;52.464;13.446;2023-02-11T00:18:23;18.30;40.40
76789;DHT22;65740;52.464;13.446;2023-02-11T00:20:49;18.30;40.40
76789;DHT22;65740;52.464;13.446;2023-02-11T00:23:15;18.30;41.00
76789;DHT22;65740;52.464;13.446;2023-02-11T00:25:41;18.30;40.40
76789;DHT22;65740;52.464;13.446;2023-02-11T00:28:08;18.20;40.30
76789;DHT22;65740;52.464;13.446;2023-02-11T00:30:34;18.30;40.40
76789;DHT22;65740;52.464;13.446;2023-02-11T00:33:00;18.20;40.20
76789;DHT22;65740;52.464;13.446;2023-02-11T00:35:26;18.20;40.20
76789;DHT22;65740;52.464;13.446;2023-02-11T00:37:53;18.30;40.30
76789;DHT22;65740;52.464;13.446;2023-02-11T00:40:19;18.20;40.20
76789;DHT22;65740;52.464;13.446;2023-02-11T00:42:45;18.20;40.20
76789;DHT22;65740;52.464;13.446;2023-02-11T00:45:11;18.20;40.20
76789;DHT22;65740;52.464;13.446;2023-02-11T00:47:37;18.30;40.30
76789;DHT22;65740;52.464;13.446;2023-02-11T00:50:04;18.20;40.10
76789;DHT22;65740;52.464;13.446;2023-02-11T00:52:30;18.20;40.10
76789;DHT22;65740;52.464;13.446;2023-02-11T00:54:56;18.20;40.10
76789;DHT22;65740;52.464;13.446;2023-02-11T00:57:21;18.20;40.10
76789;DHT22;65740;52.464;13.446;2023-02-11T00:59:47;18.20;40.10
76789;DHT22;65740;52.464;13.446;2023-02-11T01:02:13;18.20;40.10
76789;DHT22;65740;52.464;13.446;2023-02-11T01:04:39;18.20;40.70
76789;DHT22;65740;52.464;13.446;2023-02-11T01:07:04;18.20;40.00
76789;DHT22;65740;52.464;13.446;2023-02-11T01:09:30;18.20;40.00
76789;DHT22;65740;52.464;13.446;2023-02-11T01:11:55;18.20;40.10
76789;DHT22;65740;52.464;13.446;2023-02-11T01:14:21;18.20;40.10
76789;DHT22;65740;52.464;13.446;2023-02-11T01:16:47;18.20;40.00
76789;DHT22;65740;52.464;13.446;2023-02-11T01:19:12;18.20;40.00
76789;DHT22;65740;52.464;13.446;2023-02-11T01:21:38;18.20;40.00
76789;DHT22;65740;52.464;13.446;2023-02-11T01:24:03;18.20;40.00
76789;DHT22;65740;52.464;13.446;2023-02-11T01:26:29;18.10;39.90
76789;DHT22;65740;52.464;13.446;2023-02-11T01:28:55;18.10;39.90
76789;DHT22;65740;52.464;13.446;2023-02-11T01:31:20;18.10;39.90
76789;DHT22;65740;52.464;13.446;2023-02-11T01:33:46;18.10;39.90
76789;DHT22;65740;52.464;13.446;2023-02-11T01:36:12;18.10;39.90
76789;DHT22;65740;52.464;13.446;2023-02-11T01:38:37;18.10;39.90
76789;DHT22;65740;52.464;13.446;2023-02-11T01:41:08;18.10;39.90
76789;DHT22;65740;52.464;13.446;2023-02-11T01:43:40;18.10;39.90
76789;DHT22;65740;52.464;13.446;2023-02-11T01:46:29;18.10;39.90
76789;DHT22;65740;52.464;13.446;2023-02-11T01:49:15;18.10;39.90
76789;DHT22;65740;52.464;13.446;2023-02-11T01:54:27;18.10;39.90
76789;DHT22;65740;52.464;13.446;2023-02-11T01:57:14;18.10;39.90
76789;DHT22;65740;52.464;13.446;2023-02-11T02:00:16;18.10;39.90
76789;DHT22;65740;52.464;13.446;2023-02-11T02:02:47;18.10;39.80
76789;DHT22;65740;52.464;13.446;2023-02-11T02:10:43;18.10;39.80
76789;DHT22;65740;52.464;13.446;2023-02-11T02:13:11;18.10;40.40
76789;DHT22;65740;52.464;13.446;2023-02-11T02:15:39;18.10;39.80
76789;DHT22;65740;52.464;13.446;2023-02-11T02:32:11;18.10;39.90
76789;DHT22;65740;52.464;13.446;2023-02-11T02:35:04;18.10;39.80
76789;DHT22;65740;52.464;13.446;2023-02-11T02:37:39;18.00;39.70
76789;DHT22;65740;52.464;13.446;2023-02-11T02:40:19;18.10;39.90
76789;DHT22;65740;52.464;13.446;2023-02-11T02:42:46;18.10;39.80
76789;DHT22;65740;52.464;13.446;2023-02-11T02:45:12;18.00;39.80
76789;DHT22;65740;52.464;13.446;2023-02-11T02:47:38;18.00;39.70
76789;DHT22;65740;52.464;13.446;2023-02-11T02:50:05;18.00;39.70
76789;DHT22;65740;52.464;13.446;2023-02-11T02:52:40;18.00;39.80
76789;DHT22;65740;52.464;13.446;2023-02-11T02:55:52;18.00;39.70
76789;DHT22;65740;52.464;13.446;2023-02-11T03:01:02;18.00;39.80
76789;DHT22;65740;52.464;13.446;2023-02-11T03:09:05;18.00;39.80
76789;DHT22;65740;52.464;13.446;2023-02-11T03:11:31;18.00;39.80
76789;DHT22;65740;52.464;13.446;2023-02-11T03:14:00;18.00;39.80
76789;DHT22;65740;52.464;13.446;2023-02-11T03:16:27;18.00;39.80
76789;DHT22;65740;52.464;13.446;2023-02-11T03:19:36;18.00;39.80
76789;DHT22;65740;52.464;13.446;2023-02-11T03:22:07;18.00;39.80
76789;DHT22;65740;52.464;13.446;2023-02-11T03:24:34;18.00;39.80
76789;DHT22;65740;52.464;13.446;2023-02-11T03:27:20;18.00;39.80
76789;DHT22;65740;52.464;13.446;2023-02-11T03:29:55;18.00;39.80
76789;DHT22;65740;52.464;13.446;2023-02-11T03:32:28;18.00;39.80
76789;DHT22;65740;52.464;13.446;2023-02-11T03:37:36;18.00;39.80
76789;DHT22;65740;52.464;13.446;2023-02-11T03:40:11;18.00;39.80
76789;DHT22;65740;52.464;13.446;2023-02-11T03:43:02;18.00;39.80
76789;DHT22;65740;52.464;13.446;2023-02-11T03:45:26;18.00;39.80
76789;DHT22;65740;52.464;13.446;2023-02-11T03:48:10;18.00;39.80
76789;DHT22;65740;52.464;13.446;2023-02-11T03:50:38;18.00;39.70
76789;DHT22;65740;52.464;13.446;2023-02-11T03:53:05;18.00;39.80
76789;DHT22;65740;52.464;13.446;2023-02-11T03:55:35;18.00;39.80
76789;DHT22;65740;52.464;13.446;2023-02-11T03:58:02;18.00;39.80
76789;DHT22;65740;52.464;13.446;2023-02-11T04:00:35;18.00;39.80
76789;DHT22;65740;52.464;13.446;2023-02-11T04:03:02;18.00;39.80
76789;DHT22;65740;52.464;13.446;2023-02-11T04:05:28;18.00;39.80
76789;DHT22;65740;52.464;13.446;2023-02-11T04:07:53;18.00;39.80
76789;DHT22;65740;52.464;13.446;2023-02-11T04:10:19;18.00;39.80
76789;DHT22;65740;52.464;13.446;2023-02-11T04:12:45;18.00;39.80
76789;DHT22;65740;52.464;13.446;2023-02-11T04:15:10;18.00;39.80
76789;DHT22;65740;52.464;13.446;2023-02-11T04:17:36;18.00;39.90
76789;DHT22;65740;52.464;13.446;2023-02-11T04:20:02;18.00;39.90
76789;DHT22;65740;52.464;13.446;2023-02-11T04:22:29;17.90;39.70
76789;DHT22;65740;52.464;13.446;2023-02-11T04:24:54;17.90;39.70
76789;DHT22;65740;52.464;13.446;2023-02-11T04:27:20;18.00;39.90
76789;DHT22;65740;52.464;13.446;2023-02-11T04:29:45;17.90;39.70
76789;DHT22;65740;52.464;13.446;2023-02-11T04:32:11;18.00;39.90
76789;DHT22;65740;52.464;13.446;2023-02-11T04:34:37;18.00;39.90
76789;DHT22;65740;52.464;13.446;2023-02-11T04:37:03;17.90;39.80
76789;DHT22;65740;52.464;13.446;2023-02-11T04:39:29;18.00;39.90
76789;DHT22;65740;52.464;13.446;2023-02-11T04:41:54;18.00;39.90
76789;DHT22;65740;52.464;13.446;2023-02-11T04:44:20;18.00;39.90
76789;DHT22;65740;52.464;13.446;2023-02-11T04:46:46;18.00;39.90
76789;DHT22;65740;52.464;13.446;2023-02-11T04:49:13;18.00;40.00
76789;DHT22;65740;52.464;13.446;2023-02-11T04:51:39;18.00;40.00
76789;DHT22;65740;52.464;13.446;2023-02-11T04:54:05;18.00;40.00
76789;DHT22;65740;52.464;13.446;2023-02-11T04:56:37;17.90;39.90
76789;DHT22;65740;52.464;13.446;2023-02-11T04:59:04;17.90;39.90
76789;DHT22;65740;52.464;13.446;2023-02-11T05:01:29;17.90;40.00
76789;DHT22;65740;52.464;13.446;2023-02-11T05:03:56;17.90;40.00
76789;DHT22;65740;52.464;13.446;2023-02-11T05:06:22;17.90;39.90
76789;DHT22;65740;52.464;13.446;2023-02-11T05:08:47;17.90;39.90
76789;DHT22;65740;52.464;13.446;2023-02-11T05:11:21;17.90;39.90
76789;DHT22;65740;52.464;13.446;2023-02-11T05:13:47;17.90;40.00
76789;DHT22;65740;52.464;13.446;2023-02-11T05:16:14;17.90;39.90
76789;DHT22;65740;52.464;13.446;2023-02-11T05:18:42;17.90;40.00
76789;DHT22;65740;52.464;13.446;2023-02-11T05:21:11;17.90;40.00
76789;DHT22;65740;52.464;13.446;2023-02-11T05:23:37;17.90;40.00
76789;DHT22;65740;52.464;13.446;2023-02-11T05:26:03;18.00;40.10
76789;DHT22;65740;52.464;13.446;2023-02-11T05:28:29;17.90;39.90
76789;DHT22;65740;52.464;13.446;2023-02-11T05:30:55;17.90;40.00
76789;DHT22;65740;52.464;13.446;2023-02-11T05:33:21;17.90;40.00
76789;DHT22;65740;52.464;13.446;2023-02-11T05:35:46;17.90;40.00
76789;DHT22;65740;52.464;13.446;2023-02-11T05:38:12;18.00;40.10
76789;DHT22;65740;52.464;13.446;2023-02-11T05:40:39;17.90;40.00
76789;DHT22;65740;52.464;13.446;2023-02-11T05:43:04;17.90;40.00
76789;DHT22;65740;52.464;13.446;2023-02-11T05:45:30;18.00;40.00
76789;DHT22;65740;52.464;13.446;2023-02-11T05:47:56;17.90;40.00
76789;DHT22;65740;52.464;13.446;2023-02-11T05:50:22;17.90;40.10
76789;DHT22;65740;52.464;13.446;2023-02-11T05:52:47;17.90;40.00
76789;DHT22;65740;52.464;13.446;2023-02-11T05:55:13;17.90;40.00
76789;DHT22;65740;52.464;13.446;2023-02-11T05:57:39;17.90;40.00
76789;DHT22;65740;52.464;13.446;2023-02-11T06:00:05;17.90;40.00
76789;DHT22;65740;52.464;13.446;2023-02-11T06:02:31;17.90;40.00
76789;DHT22;65740;52.464;13.446;2023-02-11T06:04:56;17.90;40.10
76789;DHT22;65740;52.464;13.446;2023-02-11T06:07:22;17.90;40.00
76789;DHT22;65740;52.464;13.446;2023-02-11T06:09:48;17.90;40.10
76789;DHT22;65740;52.464;13.446;2023-02-11T06:12:13;17.90;40.10
76789;DHT22;65740;52.464;13.446;2023-02-11T06:14:39;17.90;40.10
76789;DHT22;65740;52.464;13.446;2023-02-11T06:17:04;17.90;40.10
76789;DHT22;65740;52.464;13.446;2023-02-11T06:19:30;17.90;40.10
76789;DHT22;65740;52.464;13.446;2023-02-11T06:21:56;17.90;40.20
76789;DHT22;65740;52.464;13.446;2023-02-11T06:24:22;17.90;40.30
76789;DHT22;65740;52.464;13.446;2023-02-11T06:26:48;17.90;40.20
76789;DHT22;65740;52.464;13.446;2023-02-11T06:29:13;17.90;40.20
76789;DHT22;65740;52.464;13.446;2023-02-11T06:31:39;17.90;40.20
76789;DHT22;65740;52.464;13.446;2023-02-11T06:34:06;17.90;40.20
76789;DHT22;65740;52.464;13.446;2023-02-11T06:36:32;17.90;40.10
76789;DHT22;65740;52.464;13.446;2023-02-11T06:38:57;18.00;40.20
76789;DHT22;65740;52.464;13.446;2023-02-11T06:41:23;18.00;40.30
76789;DHT22;65740;52.464;13.446;2023-02-11T06:43:48;17.90;40.10
76789;DHT22;65740;52.464;13.446;2023-02-11T06:46:14;17.90;40.20
76789;DHT22;65740;52.464;13.446;2023-02-11T06:48:40;18.00;40.30
76789;DHT22;65740;52.464;13.446;2023-02-11T06:51:08;18.00;41.00
76789;DHT22;65740;52.464;13.446;2023-02-11T06:53:37;17.90;40.20
76789;DHT22;65740;52.464;13.446;2023-02-11T06:56:04;17.90;40.20
76789;DHT22;65740;52.464;13.446;2023-02-11T06:58:31;17.90;40.10
76789;DHT22;65740;52.464;13.446;2023-02-11T07:00:56;17.90;40.20
76789;DHT22;65740;52.464;13.446;2023-02-11T07:03:22;17.90;40.20
76789;DHT22;65740;52.464;13.446;2023-02-11T07:05:48;18.00;40.40
76789;DHT22;65740;52.464;13.446;2023-02-11T07:08:13;18.00;40.40
76789;DHT22;65740;52.464;13.446;2023-02-11T07:10:39;17.90;40.10
76789;DHT22;65740;52.464;13.446;2023-02-11T07:13:05;17.90;40.30
76789;DHT22;65740;52.464;13.446;2023-02-11T07:15:30;17.90;40.30
76789;DHT22;65740;52.464;13.446;2023-02-11T07:17:56;17.90;40.20
76789;DHT22;65740;52.464;13.446;2023-02-11T07:20:22;17.90;40.30
76789;DHT22;65740;52.464;13.446;2023-02-11T07:22:47;17.90;40.20
76789;DHT22;65740;52.464;13.446;2023-02-11T07:25:13;17.90;40.20
76789;DHT22;65740;52.464;13.446;2023-02-11T07:27:39;18.00;40.40
76789;DHT22;65740;52.464;13.446;2023-02-11T07:30:04;17.90;40.30
76789;DHT22;65740;52.464;13.446;2023-02-11T07:32:30;17.90;40.30
76789;DHT22;65740;52.464;13.446;2023-02-11T07:34:56;18.00;40.40
76789;DHT22;65740;52.464;13.446;2023-02-11T07:37:22;17.90;40.30
76789;DHT22;65740;52.464;13.446;2023-02-11T07:39:47;17.90;40.30
76789;DHT22;65740;52.464;13.446;2023-02-11T07:42:13;17.90;40.30
76789;DHT22;65740;52.464;13.446;2023-02-11T07:44:38;17.90;40.70
76789;DHT22;65740;52.464;13.446;2023-02-11T07:47:04;17.90;40.40
76789;DHT22;65740;52.464;13.446;2023-02-11T07:49:30;18.00;40.40
76789;DHT22;65740;52.464;13.446;2023-02-11T07:51:55;17.90;40.30
76789;DHT22;65740;52.464;13.446;2023-02-11T07:54:21;17.90;40.30
76789;DHT22;65740;52.464;13.446;2023-02-11T07:56:46;18.00;40.40
76789;DHT22;65740;52.464;13.446;2023-02-11T07:59:12;17.90;40.30
76789;DHT22;65740;52.464;13.446;2023-02-11T08:01:38;17.90;40.30
76789;DHT22;65740;52.464;13.446;2023-02-11T08:04:04;17.90;40.40
76789;DHT22;65740;52.464;13.446;2023-02-11T08:06:31;18.00;40.40
76789;DHT22;65740;52.464;13.446;2023-02-11T08:09:02;17.90;40.30
76789;DHT22;65740;52.464;13.446;2023-02-11T08:11:28;17.90;40.30
76789;DHT22;65740;52.464;13.446;2023-02-11T08:13:55;18.00;40.50
76789;DHT22;65740;52.464;13.446;2023-02-11T08:16:22;17.90;40.30
76789;DHT22;65740;52.464;13.446;2023-02-11T08:18:48;17.90;40.30
76789;DHT22;65740;52.464;13.446;2023-02-11T08:21:14;18.00;40.40
76789;DHT22;65740;52.464;13.446;2023-02-11T08:23:42;17.90;40.40
76789;DHT22;65740;52.464;13.446;2023-02-11T08:26:13;17.90;40.30
76789;DHT22;65740;52.464;13.446;2023-02-11T08:28:40;18.00;40.50
76789;DHT22;65740;52.464;13.446;2023-02-11T08:31:11;18.00;40.40
76789;DHT22;65740;52.464;13.446;2023-02-11T08:33:38;18.00;40.40
76789;DHT22;65740;52.464;13.446;2023-02-11T08:36:13;18.00;40.50
76789;DHT22;65740;52.464;13.446;2023-02-11T08:38:39;17.90;40.30
76789;DHT22;65740;52.464;13.446;2023-02-11T08:41:06;17.90;40.50
76789;DHT22;65740;52.464;13.446;2023-02-11T08:43:32;17.90;40.50
76789;DHT22;65740;52.464;13.446;2023-02-11T08:45:58;17.90;40.50
76789;DHT22;65740;52.464;13.446;2023-02-11T08:48:25;17.90;40.50
76789;DHT22;65740;52.464;13.446;2023-02-11T08:50:50;18.00;40.60
76789;DHT22;65740;52.464;13.446;2023-02-11T08:53:16;18.00;40.60
76789;DHT22;65740;52.464;13.446;2023-02-11T08:55:53;18.00;40.70
76789;DHT22;65740;52.464;13.446;2023-02-11T08:58:19;17.90;40.60
76789;DHT22;65740;52.464;13.446;2023-02-11T09:00:45;17.90;40.60
76789;DHT22;65740;52.464;13.446;2023-02-11T09:03:12;18.00;40.70
76789;DHT22;65740;52.464;13.446;2023-02-11T09:05:42;18.00;40.70
76789;DHT22;65740;52.464;13.446;2023-02-11T09:08:07;17.90;40.60
76789;DHT22;65740;52.464;13.446;2023-02-11T09:10:33;18.00;40.70
76789;DHT22;65740;52.464;13.446;2023-02-11T09:12:59;18.00;40.70
76789;DHT22;65740;52.464;13.446;2023-02-11T09:15:25;17.90;40.60
76789;DHT22;65740;52.464;13.446;2023-02-11T09:17:51;17.90;40.70
76789;DHT22;65740;52.464;13.446;2023-02-11T09:20:17;17.90;40.70
76789;DHT22;65740;52.464;13.446;2023-02-11T09:22:42;17.90;40.70
76789;DHT22;65740;52.464;13.446;2023-02-11T09:25:08;18.00;40.60
76789;DHT22;65740;52.464;13.446;2023-02-11T09:27:34;17.90;40.60
76789;DHT22;65740;52.464;13.446;2023-02-11T09:29:59;18.00;40.70
76789;DHT22;65740;52.464;13.446;2023-02-11T09:32:25;18.00;40.80
76789;DHT22;65740;52.464;13.446;2023-02-11T09:34:51;17.90;40.70
76789;DHT22;65740;52.464;13.446;2023-02-11T09:37:16;18.00;40.70
76789;DHT22;65740;52.464;13.446;2023-02-11T09:39:42;18.00;40.80
76789;DHT22;65740;52.464;13.446;2023-02-11T09:44:58;18.00;40.80
76789;DHT22;65740;52.464;13.446;2023-02-11T09:47:34;18.00;40.70
76789;DHT22;65740;52.464;13.446;2023-02-11T09:50:09;18.00;40.80
76789;DHT22;65740;52.464;13.446;2023-02-11T09:55:39;18.00;40.80
76789;DHT22;65740;52.464;13.446;2023-02-11T09:58:22;18.00;41.00
76789;DHT22;65740;52.464;13.446;2023-02-11T10:01:09;18.00;41.00
76789;DHT22;65740;52.464;13.446;2023-02-11T10:11:46;18.00;41.00
76789;DHT22;65740;52.464;13.446;2023-02-11T10:17:13;18.00;41.10
76789;DHT22;65740;52.464;13.446;2023-02-11T10:20:31;18.00;40.90
76789;DHT22;65740;52.464;13.446;2023-02-11T10:23:00;18.00;41.10
76789;DHT22;65740;52.464;13.446;2023-02-11T10:25:37;18.00;41.10
76789;DHT22;65740;52.464;13.446;2023-02-11T10:28:14;18.00;41.10
76789;DHT22;65740;52.464;13.446;2023-02-11T10:30:58;18.00;41.10
76789;DHT22;65740;52.464;13.446;2023-02-11T10:35:59;18.00;41.10
76789;DHT22;65740;52.464;13.446;2023-02-11T10:38:25;18.00;41.20
76789;DHT22;65740;52.464;13.446;2023-02-11T10:40:52;18.00;41.10
76789;DHT22;65740;52.464;13.446;2023-02-11T10:43:22;18.00;41.20
76789;DHT22;65740;52.464;13.446;2023-02-11T10:45:51;18.00;41.20
76789;DHT22;65740;52.464;13.446;2023-02-11T10:53:33;18.00;41.20
76789;DHT22;65740;52.464;13.446;2023-02-11T10:56:00;18.00;41.20
76789;DHT22;65740;52.464;13.446;2023-02-11T10:58:45;18.00;41.20
76789;DHT22;65740;52.464;13.446;2023-02-11T11:01:12;18.00;41.20
76789;DHT22;65740;52.464;13.446;2023-02-11T11:03:49;18.00;41.20
76789;DHT22;65740;52.464;13.446;2023-02-11T11:06:15;18.00;41.10
76789;DHT22;65740;52.464;13.446;2023-02-11T11:08:52;18.00;41.90
76789;DHT22;65740;52.464;13.446;2023-02-11T11:11:22;18.00;41.20
76789;DHT22;65740;52.464;13.446;2023-02-11T11:16:28;18.10;41.40
76789;DHT22;65740;52.464;13.446;2023-02-11T11:19:19;18.00;41.30
76789;DHT22;65740;52.464;13.446;2023-02-11T11:21:54;18.00;41.30
76789;DHT22;65740;52.464;13.446;2023-02-11T11:24:32;18.00;41.30
76789;DHT22;65740;52.464;13.446;2023-02-11T11:27:01;18.00;41.40
76789;DHT22;65740;52.464;13.446;2023-02-11T11:32:27;18.00;41.40
76789;DHT22;65740;52.464;13.446;2023-02-11T11:35:00;18.00;41.40
76789;DHT22;65740;52.464;13.446;2023-02-11T11:37:31;18.00;41.40
76789;DHT22;65740;52.464;13.446;2023-02-11T11:40:19;18.00;41.30
76789;DHT22;65740;52.464;13.446;2023-02-11T11:43:02;18.00;41.90
76789;DHT22;65740;52.464;13.446;2023-02-11T11:45:28;18.00;41.20
76789;DHT22;65740;52.464;13.446;2023-02-11T11:48:12;18.10;41.30
76789;DHT22;65740;52.464;13.446;2023-02-11T11:50:45;18.10;41.50
76789;DHT22;65740;52.464;13.446;2023-02-11T11:53:36;18.10;41.60
76789;DHT22;65740;52.464;13.446;2023-02-11T11:58:36;18.10;41.60
76789;DHT22;65740;52.464;13.446;2023-02-11T12:01:20;18.10;41.70
76789;DHT22;65740;52.464;13.446;2023-02-11T12:10:15;18.20;41.90
76789;DHT22;65740;52.464;13.446;2023-02-11T12:19:05;18.20;42.00
76789;DHT22;65740;52.464;13.446;2023-02-11T12:32:48;18.30;41.80
76789;DHT22;65740;52.464;13.446;2023-02-11T12:35:24;18.30;41.70
76789;DHT22;65740;52.464;13.446;2023-02-11T12:48:11;18.40;42.00
76789;DHT22;65740;52.464;13.446;2023-02-11T12:53:20;18.40;42.00
76789;DHT22;65740;52.464;13.446;2023-02-11T12:56:17;18.40;42.00
76789;DHT22;65740;52.464;13.446;2023-02-11T12:58:39;18.50;42.00
76789;DHT22;65740;52.464;13.446;2023-02-11T13:01:16;18.50;42.80
76789;DHT22;65740;52.464;13.446;2023-02-11T13:03:56;18.50;42.20
76789;DHT22;65740;52.464;13.446;2023-02-11T13:06:33;18.50;42.20
76789;DHT22;65740;52.464;13.446;2023-02-11T13:09:03;18.50;42.20
76789;DHT22;65740;52.464;13.446;2023-02-11T13:11:42;18.50;42.30
76789;DHT22;65740;52.464;13.446;2023-02-11T13:14:36;18.50;42.20
76789;DHT22;65740;52.464;13.446;2023-02-11T13:17:18;18.50;41.90
76789;DHT22;65740;52.464;13.446;2023-02-11T13:19:59;18.50;42.00
76789;DHT22;65740;52.464;13.446;2023-02-11T13:22:36;18.60;42.20
76789;DHT22;65740;52.464;13.446;2023-02-11T13:25:27;18.60;42.20
76789;DHT22;65740;52.464;13.446;2023-02-11T13:28:03;18.50;42.30
76789;DHT22;65740;52.464;13.446;2023-02-11T13:30:34;18.60;42.20
76789;DHT22;65740;52.464;13.446;2023-02-11T13:33:15;18.60;42.20
76789;DHT22;65740;52.464;13.446;2023-02-11T13:38:22;18.60;42.50
76789;DHT22;65740;52.464;13.446;2023-02-11T13:40:59;18.70;42.60
76789;DHT22;65740;52.464;13.446;2023-02-11T13:43:27;18.70;42.80
76789;DHT22;65740;52.464;13.446;2023-02-11T13:46:05;18.60;42.90
76789;DHT22;65740;52.464;13.446;2023-02-11T13:49:04;18.70;43.10
76789;DHT22;65740;52.464;13.446;2023-02-11T13:51:37;18.70;42.80
76789;DHT22;65740;52.464;13.446;2023-02-11T13:54:05;18.70;42.80
76789;DHT22;65740;52.464;13.446;2023-02-11T13:56:37;18.70;42.60
76789;DHT22;65740;52.464;13.446;2023-02-11T14:11:08;18.80;42.80
76789;DHT22;65740;52.464;13.446;2023-02-11T14:14:00;18.80;42.60
76789;DHT22;65740;52.464;13.446;2023-02-11T14:16:26;18.80;42.90
76789;DHT22;65740;52.464;13.446;2023-02-11T14:21:32;18.80;42.80
76789;DHT22;65740;52.464;13.446;2023-02-11T14:26:46;18.90;42.90
76789;DHT22;65740;52.464;13.446;2023-02-11T14:37:32;18.90;42.80
76789;DHT22;65740;52.464;13.446;2023-02-11T14:40:47;18.90;42.60
76789;DHT22;65740;52.464;13.446;2023-02-11T14:43:24;18.90;42.70
76789;DHT22;65740;52.464;13.446;2023-02-11T14:45:53;18.90;42.60
76789;DHT22;65740;52.464;13.446;2023-02-11T14:48:25;18.90;42.60
76789;DHT22;65740;52.464;13.446;2023-02-11T14:50:59;18.90;43.30
76789;DHT22;65740;52.464;13.446;2023-02-11T14:53:27;18.90;42.70
76789;DHT22;65740;52.464;13.446;2023-02-11T14:55:54;18.90;42.70
76789;DHT22;65740;52.464;13.446;2023-02-11T14:58:24;18.90;42.70
76789;DHT22;65740;52.464;13.446;2023-02-11T15:01:02;18.90;42.70
76789;DHT22;65740;52.464;13.446;2023-02-11T15:03:42;18.90;42.70
76789;DHT22;65740;52.464;13.446;2023-02-11T15:06:20;18.90;42.80
76789;DHT22;65740;52.464;13.446;2023-02-11T15:09:16;18.90;42.70
76789;DHT22;65740;52.464;13.446;2023-02-11T15:11:45;18.90;42.80
76789;DHT22;65740;52.464;13.446;2023-02-11T15:14:21;18.90;42.80
76789;DHT22;65740;52.464;13.446;2023-02-11T15:16:47;18.90;42.70
76789;DHT22;65740;52.464;13.446;2023-02-11T15:19:29;18.90;42.80
76789;DHT22;65740;52.464;13.446;2023-02-11T15:21:56;18.90;42.90
76789;DHT22;65740;52.464;13.446;2023-02-11T15:24:31;18.90;42.70
76789;DHT22;65740;52.464;13.446;2023-02-11T15:29:46;18.90;42.80
76789;DHT22;65740;52.464;13.446;2023-02-11T15:32:15;18.90;42.70
76789;DHT22;65740;52.464;13.446;2023-02-11T15:34:41;18.90;42.80
76789;DHT22;65740;52.464;13.446;2023-02-11T15:37:13;18.90;42.90
76789;DHT22;65740;52.464;13.446;2023-02-11T15:39:40;18.90;43.00
76789;DHT22;65740;52.464;13.446;2023-02-11T15:42:29;19.00;43.10
76789;DHT22;65740;52.464;13.446;2023-02-11T15:47:40;18.90;42.90
76789;DHT22;65740;52.464;13.446;2023-02-11T15:50:17;18.90;42.90
76789;DHT22;65740;52.464;13.446;2023-02-11T15:52:45;19.00;43.00
76789;DHT22;65740;52.464;13.446;2023-02-11T15:55:13;19.00;42.80
76789;DHT22;65740;52.464;13.446;2023-02-11T15:57:44;19.00;42.90
76789;DHT22;65740;52.464;13.446;2023-02-11T16:00:16;19.00;42.90
76789;DHT22;65740;52.464;13.446;2023-02-11T16:02:44;19.00;43.00
76789;DHT22;65740;52.464;13.446;2023-02-11T16:05:35;19.00;43.00
76789;DHT22;65740;52.464;13.446;2023-02-11T16:08:19;19.00;43.60
76789;DHT22;65740;52.464;13.446;2023-02-11T16:11:36;19.00;42.90
76789;DHT22;65740;52.464;13.446;2023-02-11T16:13:44;19.00;42.90
76789;DHT22;65740;52.464;13.446;2023-02-11T16:16:21;19.00;42.90
76789;DHT22;65740;52.464;13.446;2023-02-11T16:18:53;19.00;42.90
76789;DHT22;65740;52.464;13.446;2023-02-11T16:21:29;19.00;42.90
76789;DHT22;65740;52.464;13.446;2023-02-11T16:24:06;19.00;43.00
76789;DHT22;65740;52.464;13.446;2023-02-11T16:26:37;19.00;42.90
76789;DHT22;65740;52.464;13.446;2023-02-11T16:31:39;19.00;42.90
76789;DHT22;65740;52.464;13.446;2023-02-11T16:36:41;19.00;43.00
76789;DHT22;65740;52.464;13.446;2023-02-11T16:39:07;19.10;43.00
76789;DHT22;65740;52.464;13.446;2023-02-11T16:41:33;19.00;42.80
76789;DHT22;65740;52.464;13.446;2023-02-11T16:43:59;19.10;42.90
76789;DHT22;65740;52.464;13.446;2023-02-11T16:46:24;19.10;42.90
76789;DHT22;65740;52.464;13.446;2023-02-11T16:48:52;19.10;43.00
76789;DHT22;65740;52.464;13.446;2023-02-11T16:51:18;19.10;43.00
76789;DHT22;65740;52.464;13.446;2023-02-11T16:53:43;19.10;42.90
76789;DHT22;65740;52.464;13.446;2023-02-11T16:56:16;19.10;43.00
76789;DHT22;65740;52.464;13.446;2023-02-11T16:58:43;19.10;43.00
76789;DHT22;65740;52.464;13.446;2023-02-11T17:01:09;19.10;43.10
76789;DHT22;65740;52.464;13.446;2023-02-11T17:03:36;19.10;42.90
76789;DHT22;65740;52.464;13.446;2023-02-11T17:06:07;19.10;42.90
76789;DHT22;65740;52.464;13.446;2023-02-11T17:08:33;19.10;43.00
76789;DHT22;65740;52.464;13.446;2023-02-11T17:11:00;19.10;42.90
76789;DHT22;65740;52.464;13.446;2023-02-11T17:13:26;19.10;43.00
76789;DHT22;65740;52.464;13.446;2023-02-11T17:15:51;19.10;43.00
76789;DHT22;65740;52.464;13.446;2023-02-11T17:18:17;19.10;43.00
76789;DHT22;65740;52.464;13.446;2023-02-11T17:20:43;19.10;43.10
76789;DHT22;65740;52.464;13.446;2023-02-11T17:23:09;19.10;43.80
76789;DHT22;65740;52.464;13.446;2023-02-11T17:25:34;19.10;43.00
76789;DHT22;65740;52.464;13.446;2023-02-11T17:28:03;19.10;43.10
76789;DHT22;65740;52.464;13.446;2023-02-11T17:30:29;19.10;43.10
76789;DHT22;65740;52.464;13.446;2023-02-11T17:32:54;19.10;43.20
76789;DHT22;65740;52.464;13.446;2023-02-11T17:35:20;19.10;43.10
76789;DHT22;65740;52.464;13.446;2023-02-11T17:37:45;19.10;43.20
76789;DHT22;65740;52.464;13.446;2023-02-11T17:40:12;19.10;43.20
76789;DHT22;65740;52.464;13.446;2023-02-11T17:42:38;19.10;43.20
76789;DHT22;65740;52.464;13.446;2023-02-11T17:45:04;19.10;43.20
76789;DHT22;65740;52.464;13.446;2023-02-11T17:47:29;19.10;43.30
76789;DHT22;65740;52.464;13.446;2023-02-11T17:49:55;19.10;43.20
76789;DHT22;65740;52.464;13.446;2023-02-11T17:52:20;19.10;42.90
76789;DHT22;65740;52.464;13.446;2023-02-11T17:54:48;19.10;43.20
76789;DHT22;65740;52.464;13.446;2023-02-11T17:57:14;19.10;43.20